sensor_id;sensor_type;location;lat;lon;timestamp;pressure;altitude;pressure_sealevel;temperature;humidity
22830;BME280;11581;51.250;6.778;2022-09-09T00:00:47;100442.03;;;19.54;61.69
22830;BME280;11581;51.250;6.778;2022-09-09T00:03:20;100432.69;;;19.44;61.34
22830;BME280;11581;51.250;6.778;2022-09-09T00:05:57;100429.59;;;19.40;62.23
22830;BME280;11581;51.250;6.778;2022-09-09T00:08:32;100423.81;;;19.30;62.55
22830;BME280;11581;51.250;6.778;2022-09-09T00:11:03;100439.41;;;19.35;61.94
22830;BME280;11581;51.250;6.778;2022-09-09T00:13:36;100443.53;;;19.31;62.22
22830;BME280;11581;51.250;6.778;2022-09-09T00:16:10;100432.31;;;19.21;62.64
22830;BME280;11581;51.250;6.778;2022-09-09T00:18:51;100420.91;;;19.06;62.28
22830;BME280;11581;51.250;6.778;2022-09-09T00:21:23;100432.34;;;19.14;62.36
22830;BME280;11581;51.250;6.778;2022-09-09T00:23:53;100317.06;;;18.43;62.23
22830;BME280;11581;51.250;6.778;2022-09-09T00:26:27;100420.47;;;19.09;62.81
22830;BME280;11581;51.250;6.778;2022-09-09T00:29:04;100435.44;;;19.11;62.91
22830;BME280;11581;51.250;6.778;2022-09-09T00:31:32;100436.69;;;19.09;62.51
22830;BME280;11581;51.250;6.778;2022-09-09T00:34:03;100434.19;;;19.07;63.50
22830;BME280;11581;51.250;6.778;2022-09-09T00:36:35;100427.97;;;19.00;63.20
22830;BME280;11581;51.250;6.778;2022-09-09T00:39:04;100394.31;;;18.83;63.07
22830;BME280;11581;51.250;6.778;2022-09-09T00:41:41;100433.38;;;19.07;63.82
22830;BME280;11581;51.250;6.778;2022-09-09T00:44:21;100414.06;;;18.97;63.96
22830;BME280;11581;51.250;6.778;2022-09-09T00:47:03;100421.13;;;19.04;64.38
22830;BME280;11581;51.250;6.778;2022-09-09T00:49:50;100373.13;;;18.80;64.21
22830;BME280;11581;51.250;6.778;2022-09-09T00:52:31;100424.22;;;19.14;64.35
22830;BME280;11581;51.250;6.778;2022-09-09T00:55:05;100429.22;;;19.17;64.29
22830;BME280;11581;51.250;6.778;2022-09-09T00:57:33;100423.38;;;19.20;64.02
22830;BME280;11581;51.250;6.778;2022-09-09T01:00:18;100430.03;;;19.24;64.92
22830;BME280;11581;51.250;6.778;2022-09-09T01:02:56;100423.19;;;19.28;64.60
22830;BME280;11581;51.250;6.778;2022-09-09T01:05:36;100276.72;;;18.35;64.56
22830;BME280;11581;51.250;6.778;2022-09-09T01:08:19;100422.75;;;19.31;64.45
22830;BME280;11581;51.250;6.778;2022-09-09T01:10:51;100419.41;;;19.23;63.78
22830;BME280;11581;51.250;6.778;2022-09-09T01:13:25;100404.69;;;19.19;64.27
22830;BME280;11581;51.250;6.778;2022-09-09T01:15:56;100425.03;;;19.34;63.81
22830;BME280;11581;51.250;6.778;2022-09-09T01:18:27;100405.06;;;19.22;64.29
22830;BME280;11581;51.250;6.778;2022-09-09T01:21:04;100410.25;;;19.24;64.23
22830;BME280;11581;51.250;6.778;2022-09-09T01:24:01;100419.41;;;19.29;64.17
22830;BME280;11581;51.250;6.778;2022-09-09T01:26:42;100393.44;;;19.15;63.73
22830;BME280;11581;51.250;6.778;2022-09-09T01:29:18;100416.72;;;19.29;63.51
22830;BME280;11581;51.250;6.778;2022-09-09T01:31:53;100407.75;;;19.22;63.81
22830;BME280;11581;51.250;6.778;2022-09-09T01:34:22;100414.44;;;19.26;63.53
22830;BME280;11581;51.250;6.778;2022-09-09T01:36:56;100398.84;;;19.15;63.65
22830;BME280;11581;51.250;6.778;2022-09-09T01:39:24;100422.53;;;19.26;63.37
22830;BME280;11581;51.250;6.778;2022-09-09T01:42:15;100403.41;;;19.15;62.98
22830;BME280;11581;51.250;6.778;2022-09-09T01:44:45;100417.53;;;19.23;62.78
22830;BME280;11581;51.250;6.778;2022-09-09T01:47:14;100400.50;;;19.16;63.27
22830;BME280;11581;51.250;6.778;2022-09-09T01:49:59;100403.41;;;19.15;62.97
22830;BME280;11581;51.250;6.778;2022-09-09T01:52:29;100397.59;;;19.11;62.99
22830;BME280;11581;51.250;6.778;2022-09-09T01:54:56;100411.72;;;19.20;63.04
22830;BME280;11581;51.250;6.778;2022-09-09T01:57:32;100412.56;;;19.20;63.51
22830;BME280;11581;51.250;6.778;2022-09-09T02:00:05;100415.03;;;19.22;63.38
22830;BME280;11581;51.250;6.778;2022-09-09T02:02:48;100424.44;;;19.26;63.53
22830;BME280;11581;51.250;6.778;2022-09-09T02:05:38;100398.22;;;19.20;63.43
22830;BME280;11581;51.250;6.778;2022-09-09T02:08:17;100418.56;;;19.35;63.79
22830;BME280;11581;51.250;6.778;2022-09-09T02:10:56;100396.78;;;19.30;63.16
22830;BME280;11581;51.250;6.778;2022-09-09T02:13:43;100416.25;;;19.45;63.71
22830;BME280;11581;51.250;6.778;2022-09-09T02:16:15;100414.56;;;19.51;63.41
22830;BME280;11581;51.250;6.778;2022-09-09T02:18:50;100420.19;;;19.56;63.12
22830;BME280;11581;51.250;6.778;2022-09-09T02:21:24;100419.56;;;19.60;63.14
22830;BME280;11581;51.250;6.778;2022-09-09T02:23:55;100363.28;;;19.31;63.03
22830;BME280;11581;51.250;6.778;2022-09-09T02:26:27;100401.66;;;19.59;62.91
22830;BME280;11581;51.250;6.778;2022-09-09T02:29:07;100409.53;;;19.67;62.95
22830;BME280;11581;51.250;6.778;2022-09-09T02:31:36;100418.22;;;19.76;62.83
22830;BME280;11581;51.250;6.778;2022-09-09T02:34:09;100417.00;;;19.78;62.61
22830;BME280;11581;51.250;6.778;2022-09-09T02:36:38;100416.53;;;19.81;62.54
22830;BME280;11581;51.250;6.778;2022-09-09T02:39:08;100421.53;;;19.84;62.40
22830;BME280;11581;51.250;6.778;2022-09-09T02:41:40;100418.38;;;19.87;62.58
22830;BME280;11581;51.250;6.778;2022-09-09T02:44:11;100410.91;;;19.89;62.35
22830;BME280;11581;51.250;6.778;2022-09-09T02:46:53;100415.25;;;19.90;62.35
22830;BME280;11581;51.250;6.778;2022-09-09T02:49:36;100323.94;;;19.35;62.09
22830;BME280;11581;51.250;6.778;2022-09-09T02:52:13;100398.63;;;19.87;62.13
22830;BME280;11581;51.250;6.778;2022-09-09T02:54:42;100387.41;;;19.83;62.14
22830;BME280;11581;51.250;6.778;2022-09-09T02:57:14;100375.94;;;19.81;62.07
22830;BME280;11581;51.250;6.778;2022-09-09T02:59:52;100406.28;;;19.97;62.04
22830;BME280;11581;51.250;6.778;2022-09-09T03:02:18;100308.53;;;19.42;61.99
22830;BME280;11581;51.250;6.778;2022-09-09T03:04:50;100350.84;;;19.68;61.81
22830;BME280;11581;51.250;6.778;2022-09-09T03:07:19;100361.25;;;19.71;61.83
22830;BME280;11581;51.250;6.778;2022-09-09T03:09:47;100324.69;;;19.55;61.77
22830;BME280;11581;51.250;6.778;2022-09-09T03:12:14;100192.38;;;18.72;61.88
22830;BME280;11581;51.250;6.778;2022-09-09T03:14:41;100356.06;;;19.69;61.68
22830;BME280;11581;51.250;6.778;2022-09-09T03:17:12;100392.38;;;19.93;62.05
22830;BME280;11581;51.250;6.778;2022-09-09T03:19:47;100396.09;;;19.92;61.56
22830;BME280;11581;51.250;6.778;2022-09-09T03:22:15;100365.41;;;19.67;61.85
22830;BME280;11581;51.250;6.778;2022-09-09T03:24:45;100391.53;;;19.92;61.77
22830;BME280;11581;51.250;6.778;2022-09-09T03:27:12;100390.69;;;19.92;61.58
22830;BME280;11581;51.250;6.778;2022-09-09T03:29:40;100356.84;;;19.76;61.56
22830;BME280;11581;51.250;6.778;2022-09-09T03:32:13;100350.00;;;19.67;61.79
22830;BME280;11581;51.250;6.778;2022-09-09T03:34:43;100381.75;;;19.92;61.58
22830;BME280;11581;51.250;6.778;2022-09-09T03:37:12;100376.56;;;19.83;61.42
22830;BME280;11581;51.250;6.778;2022-09-09T03:39:39;100341.47;;;19.70;61.70
22830;BME280;11581;51.250;6.778;2022-09-09T03:42:07;100400.22;;;19.94;61.64
22830;BME280;11581;51.250;6.778;2022-09-09T03:44:34;100392.13;;;19.94;61.44
22830;BME280;11581;51.250;6.778;2022-09-09T03:47:01;100396.50;;;19.96;61.57
22830;BME280;11581;51.250;6.778;2022-09-09T03:49:30;100398.38;;;19.95;61.32
22830;BME280;11581;51.250;6.778;2022-09-09T03:51:57;100392.13;;;19.94;61.48
22830;BME280;11581;51.250;6.778;2022-09-09T03:54:24;100281.75;;;19.21;61.11
22830;BME280;11581;51.250;6.778;2022-09-09T03:56:51;100393.16;;;19.93;60.96
22830;BME280;11581;51.250;6.778;2022-09-09T03:59:18;100323.88;;;19.48;61.16
22830;BME280;11581;51.250;6.778;2022-09-09T04:01:46;100357.28;;;19.73;61.38
22830;BME280;11581;51.250;6.778;2022-09-09T04:04:13;100383.44;;;19.86;61.21
22830;BME280;11581;51.250;6.778;2022-09-09T04:06:42;100397.38;;;19.83;61.12
22830;BME280;11581;51.250;6.778;2022-09-09T04:09:09;100397.00;;;19.79;61.42
22830;BME280;11581;51.250;6.778;2022-09-09T04:11:35;100368.78;;;19.62;61.42
22830;BME280;11581;51.250;6.778;2022-09-09T04:14:03;100321.09;;;19.17;61.27
22830;BME280;11581;51.250;6.778;2022-09-09T04:16:31;100391.22;;;19.69;61.82
22830;BME280;11581;51.250;6.778;2022-09-09T04:18:58;100413.88;;;19.68;61.75
22830;BME280;11581;51.250;6.778;2022-09-09T04:21:25;100391.44;;;19.68;61.62
22830;BME280;11581;51.250;6.778;2022-09-09T04:23:54;100416.00;;;19.66;61.79
22830;BME280;11581;51.250;6.778;2022-09-09T04:26:21;100394.56;;;19.65;61.93
22830;BME280;11581;51.250;6.778;2022-09-09T04:28:48;100394.56;;;19.65;61.93
22830;BME280;11581;51.250;6.778;2022-09-09T04:31:20;100385.63;;;19.64;62.22
22830;BME280;11581;51.250;6.778;2022-09-09T04:33:52;100404.13;;;19.67;62.19
22830;BME280;11581;51.250;6.778;2022-09-09T04:36:20;100406.81;;;19.67;62.25
22830;BME280;11581;51.250;6.778;2022-09-09T04:38:48;100363.44;;;19.49;62.09
22830;BME280;11581;51.250;6.778;2022-09-09T04:41:17;100320.84;;;19.25;61.95
22830;BME280;11581;51.250;6.778;2022-09-09T04:43:46;100394.09;;;19.74;62.07
22830;BME280;11581;51.250;6.778;2022-09-09T04:46:14;100393.06;;;19.75;62.25
22830;BME280;11581;51.250;6.778;2022-09-09T04:48:43;100389.09;;;19.78;61.97
22830;BME280;11581;51.250;6.778;2022-09-09T04:51:13;100389.47;;;19.81;61.74
22830;BME280;11581;51.250;6.778;2022-09-09T04:53:43;100395.53;;;19.83;61.96
22830;BME280;11581;51.250;6.778;2022-09-09T04:56:13;100389.47;;;19.81;61.79
22830;BME280;11581;51.250;6.778;2022-09-09T04:58:45;100402.16;;;19.87;61.69
22830;BME280;11581;51.250;6.778;2022-09-09T05:01:17;100390.09;;;19.90;61.20
22830;BME280;11581;51.250;6.778;2022-09-09T05:03:46;100298.59;;;19.23;61.62
22830;BME280;11581;51.250;6.778;2022-09-09T05:06:18;100394.81;;;19.94;61.53
22830;BME280;11581;51.250;6.778;2022-09-09T05:08:48;100393.59;;;19.97;61.42
22830;BME280;11581;51.250;6.778;2022-09-09T05:11:20;100392.31;;;20.00;61.02
22830;BME280;11581;51.250;6.778;2022-09-09T05:13:50;100289.00;;;19.40;60.93
22830;BME280;11581;51.250;6.778;2022-09-09T05:16:18;100401.44;;;20.05;60.96
22830;BME280;11581;51.250;6.778;2022-09-09T05:18:46;100389.59;;;20.06;61.04
22830;BME280;11581;51.250;6.778;2022-09-09T05:21:15;100390.19;;;20.08;60.81
22830;BME280;11581;51.250;6.778;2022-09-09T05:23:44;100394.31;;;20.11;61.00
22830;BME280;11581;51.250;6.778;2022-09-09T05:26:13;100381.44;;;20.13;60.86
22830;BME280;11581;51.250;6.778;2022-09-09T05:28:41;100363.97;;;20.02;60.76
22830;BME280;11581;51.250;6.778;2022-09-09T05:31:10;100382.66;;;20.17;60.29
22830;BME280;11581;51.250;6.778;2022-09-09T05:33:39;100391.41;;;20.19;60.50
22830;BME280;11581;51.250;6.778;2022-09-09T05:36:09;100385.56;;;20.22;60.72
22830;BME280;11581;51.250;6.778;2022-09-09T05:38:39;100377.66;;;20.20;60.39
22830;BME280;11581;51.250;6.778;2022-09-09T05:41:07;100390.53;;;20.25;60.31
22830;BME280;11581;51.250;6.778;2022-09-09T05:43:36;100364.97;;;20.14;60.73
22830;BME280;11581;51.250;6.778;2022-09-09T05:46:05;100356.88;;;20.08;60.34
22830;BME280;11581;51.250;6.778;2022-09-09T05:48:36;100361.00;;;20.17;60.49
22830;BME280;11581;51.250;6.778;2022-09-09T05:51:05;100344.03;;;19.97;60.67
22830;BME280;11581;51.250;6.778;2022-09-09T05:53:34;100392.09;;;20.39;60.81
22830;BME280;11581;51.250;6.778;2022-09-09T05:56:02;100394.38;;;20.42;60.58
22830;BME280;11581;51.250;6.778;2022-09-09T05:58:32;100396.19;;;20.48;60.84
22830;BME280;11581;51.250;6.778;2022-09-09T06:01:06;100388.31;;;20.40;60.33
22830;BME280;11581;51.250;6.778;2022-09-09T06:03:37;100394.88;;;20.57;60.38
22830;BME280;11581;51.250;6.778;2022-09-09T06:06:05;100402.34;;;20.61;60.65
22830;BME280;11581;51.250;6.778;2022-09-09T06:08:36;100403.56;;;20.65;60.44
22830;BME280;11581;51.250;6.778;2022-09-09T06:11:06;100362.41;;;20.50;60.30
22830;BME280;11581;51.250;6.778;2022-09-09T06:13:35;100397.03;;;20.73;60.00
22830;BME280;11581;51.250;6.778;2022-09-09T06:16:05;100397.19;;;20.78;60.27
22830;BME280;11581;51.250;6.778;2022-09-09T06:18:32;100382.66;;;20.72;60.17
22830;BME280;11581;51.250;6.778;2022-09-09T06:21:02;100399.19;;;20.89;59.65
22830;BME280;11581;51.250;6.778;2022-09-09T06:23:30;100396.66;;;20.94;59.80
22830;BME280;11581;51.250;6.778;2022-09-09T06:26:02;100408.28;;;21.01;59.05
22830;BME280;11581;51.250;6.778;2022-09-09T06:28:29;100385.59;;;20.95;59.16
22830;BME280;11581;51.250;6.778;2022-09-09T06:30:59;100365.44;;;20.85;58.68
22830;BME280;11581;51.250;6.778;2022-09-09T06:33:26;100340.94;;;20.73;58.91
22830;BME280;11581;51.250;6.778;2022-09-09T06:35:54;100411.03;;;21.19;58.53
22830;BME280;11581;51.250;6.778;2022-09-09T06:38:24;100376.19;;;20.98;58.08
22830;BME280;11581;51.250;6.778;2022-09-09T06:40:52;100389.72;;;21.22;58.29
22830;BME280;11581;51.250;6.778;2022-09-09T06:43:21;100383.50;;;21.15;58.88
22830;BME280;11581;51.250;6.778;2022-09-09T06:45:54;100397.50;;;21.37;58.36
22830;BME280;11581;51.250;6.778;2022-09-09T06:48:22;100392.94;;;21.67;60.83
22830;BME280;11581;51.250;6.778;2022-09-09T06:50:51;100408.78;;;22.18;60.33
22830;BME280;11581;51.250;6.778;2022-09-09T06:53:19;100333.09;;;22.10;58.37
22830;BME280;11581;51.250;6.778;2022-09-09T06:55:48;100411.22;;;22.90;55.56
22830;BME280;11581;51.250;6.778;2022-09-09T06:58:17;100415.84;;;23.12;54.07
22830;BME280;11581;51.250;6.778;2022-09-09T07:00:44;100408.09;;;23.27;54.27
22830;BME280;11581;51.250;6.778;2022-09-09T07:03:11;100379.78;;;23.17;54.49
22830;BME280;11581;51.250;6.778;2022-09-09T07:05:38;100366.69;;;23.25;53.70
22830;BME280;11581;51.250;6.778;2022-09-09T07:08:06;100416.03;;;23.68;52.75
22830;BME280;11581;51.250;6.778;2022-09-09T07:10:32;100429.31;;;23.76;51.80
22830;BME280;11581;51.250;6.778;2022-09-09T07:13:02;100415.69;;;23.76;50.36
22830;BME280;11581;51.250;6.778;2022-09-09T07:15:29;100387.94;;;23.51;50.40
22830;BME280;11581;51.250;6.778;2022-09-09T07:18:00;100422.81;;;23.66;49.73
22830;BME280;11581;51.250;6.778;2022-09-09T07:20:28;100417.38;;;23.54;50.26
22830;BME280;11581;51.250;6.778;2022-09-09T07:22:55;100414.94;;;23.41;50.24
22830;BME280;11581;51.250;6.778;2022-09-09T07:25:24;100424.19;;;23.29;50.55
22830;BME280;11581;51.250;6.778;2022-09-09T07:27:53;100423.31;;;23.17;50.86
22830;BME280;11581;51.250;6.778;2022-09-09T07:30:21;100422.84;;;23.08;50.98
22830;BME280;11581;51.250;6.778;2022-09-09T07:32:50;100412.53;;;22.87;50.83
22830;BME280;11581;51.250;6.778;2022-09-09T07:35:22;100410.88;;;22.86;51.51
22830;BME280;11581;51.250;6.778;2022-09-09T07:37:49;100430.03;;;22.91;51.51
22830;BME280;11581;51.250;6.778;2022-09-09T07:40:17;100427.19;;;22.86;51.38
22830;BME280;11581;51.250;6.778;2022-09-09T07:42:47;100452.75;;;22.85;52.19
22830;BME280;11581;51.250;6.778;2022-09-09T07:45:14;100401.63;;;22.64;52.54
22830;BME280;11581;51.250;6.778;2022-09-09T07:47:42;100409.25;;;22.85;51.39
22830;BME280;11581;51.250;6.778;2022-09-09T07:50:09;100449.56;;;23.11;51.52
22830;BME280;11581;51.250;6.778;2022-09-09T07:52:38;100426.38;;;23.09;50.84
22830;BME280;11581;51.250;6.778;2022-09-09T07:55:06;100448.28;;;23.25;50.49
22830;BME280;11581;51.250;6.778;2022-09-09T07:57:34;100442.38;;;23.28;50.12
22830;BME280;11581;51.250;6.778;2022-09-09T08:00:02;100360.63;;;22.77;49.66
22830;BME280;11581;51.250;6.778;2022-09-09T08:02:37;100401.56;;;22.94;49.72
22830;BME280;11581;51.250;6.778;2022-09-09T08:05:06;100448.44;;;23.30;48.83
22830;BME280;11581;51.250;6.778;2022-09-09T08:07:35;100456.59;;;23.30;49.01
22830;BME280;11581;51.250;6.778;2022-09-09T08:10:03;100448.44;;;23.30;49.23
22830;BME280;11581;51.250;6.778;2022-09-09T08:12:31;100395.75;;;22.90;48.99
22830;BME280;11581;51.250;6.778;2022-09-09T08:15:00;100437.25;;;23.20;48.90
22830;BME280;11581;51.250;6.778;2022-09-09T08:17:30;100446.41;;;23.37;49.01
22830;BME280;11581;51.250;6.778;2022-09-09T08:20:00;100451.47;;;23.45;48.75
22830;BME280;11581;51.250;6.778;2022-09-09T08:22:32;100455.25;;;23.56;47.70
22830;BME280;11581;51.250;6.778;2022-09-09T08:24:59;100429.91;;;23.55;48.63
22830;BME280;11581;51.250;6.778;2022-09-09T08:27:27;100431.69;;;23.61;47.91
22830;BME280;11581;51.250;6.778;2022-09-09T08:29:55;100363.00;;;23.31;47.86
22830;BME280;11581;51.250;6.778;2022-09-09T08:32:23;100459.94;;;23.95;47.55
22830;BME280;11581;51.250;6.778;2022-09-09T08:34:49;100314.59;;;23.22;47.27
22830;BME280;11581;51.250;6.778;2022-09-09T08:37:20;100380.09;;;23.66;46.76
22830;BME280;11581;51.250;6.778;2022-09-09T08:39:48;100450.75;;;24.13;45.71
22830;BME280;11581;51.250;6.778;2022-09-09T08:42:38;100445.06;;;24.14;45.28
22830;BME280;11581;51.250;6.778;2022-09-09T08:45:27;100451.69;;;24.18;45.22
22830;BME280;11581;51.250;6.778;2022-09-09T08:48:11;100441.50;;;24.14;45.04
22830;BME280;11581;51.250;6.778;2022-09-09T08:50:41;100449.41;;;24.27;45.99
22830;BME280;11581;51.250;6.778;2022-09-09T08:53:17;100452.97;;;24.27;44.84
22830;BME280;11581;51.250;6.778;2022-09-09T08:55:51;100461.97;;;24.28;44.22
22830;BME280;11581;51.250;6.778;2022-09-09T08:58:28;100443.38;;;24.25;45.55
22830;BME280;11581;51.250;6.778;2022-09-09T09:01:12;100453.44;;;24.24;44.95
22830;BME280;11581;51.250;6.778;2022-09-09T09:03:53;100448.84;;;24.25;44.83
22830;BME280;11581;51.250;6.778;2022-09-09T09:06:39;100437.94;;;24.25;44.37
22830;BME280;11581;51.250;6.778;2022-09-09T09:09:18;100452.47;;;24.30;44.15
22830;BME280;11581;51.250;6.778;2022-09-09T09:11:50;100455.72;;;24.16;44.48
22830;BME280;11581;51.250;6.778;2022-09-09T09:14:21;100460.22;;;24.22;45.13
22830;BME280;11581;51.250;6.778;2022-09-09T09:16:53;100451.59;;;24.13;44.77
22830;BME280;11581;51.250;6.778;2022-09-09T09:19:22;100443.34;;;23.96;45.01
22830;BME280;11581;51.250;6.778;2022-09-09T09:21:58;100460.38;;;24.03;44.54
22830;BME280;11581;51.250;6.778;2022-09-09T09:24:36;100466.22;;;23.95;44.28
22830;BME280;11581;51.250;6.778;2022-09-09T09:27:13;100465.75;;;23.87;44.73
22830;BME280;11581;51.250;6.778;2022-09-09T09:29:44;100431.69;;;23.61;45.33
22830;BME280;11581;51.250;6.778;2022-09-09T09:32:16;100436.44;;;23.54;44.77
22830;BME280;11581;51.250;6.778;2022-09-09T09:34:49;100481.06;;;23.65;44.50
22830;BME280;11581;51.250;6.778;2022-09-09T09:37:25;100447.19;;;23.49;44.87
22830;BME280;11581;51.250;6.778;2022-09-09T09:39:53;100428.31;;;23.31;45.84
22830;BME280;11581;51.250;6.778;2022-09-09T09:42:23;100450.03;;;23.54;45.64
22830;BME280;11581;51.250;6.778;2022-09-09T09:44:55;100478.75;;;23.85;47.25
22830;BME280;11581;51.250;6.778;2022-09-09T09:47:23;100456.00;;;24.02;47.22
22830;BME280;11581;51.250;6.778;2022-09-09T09:50:19;100469.34;;;24.72;44.59
22830;BME280;11581;51.250;6.778;2022-09-09T09:52:54;100449.50;;;25.26;44.07
22830;BME280;11581;51.250;6.778;2022-09-09T09:55:23;100464.09;;;25.91;47.70
22830;BME280;11581;51.250;6.778;2022-09-09T09:57:52;100466.34;;;26.37;42.68
22830;BME280;11581;51.250;6.778;2022-09-09T10:00:21;100447.28;;;26.69;41.44
22830;BME280;11581;51.250;6.778;2022-09-09T10:03:01;100460.16;;;27.05;40.48
22830;BME280;11581;51.250;6.778;2022-09-09T10:05:35;100462.72;;;27.16;37.86
22830;BME280;11581;51.250;6.778;2022-09-09T10:08:11;100452.34;;;27.18;37.97
22830;BME280;11581;51.250;6.778;2022-09-09T10:10:49;100399.22;;;26.78;37.37
22830;BME280;11581;51.250;6.778;2022-09-09T10:13:25;100422.00;;;26.88;37.85
22830;BME280;11581;51.250;6.778;2022-09-09T10:16:05;100450.53;;;26.97;38.16
22830;BME280;11581;51.250;6.778;2022-09-09T10:18:51;100445.03;;;26.92;37.87
22830;BME280;11581;51.250;6.778;2022-09-09T10:21:53;100442.75;;;26.84;39.00
22830;BME280;11581;51.250;6.778;2022-09-09T10:27:33;100449.94;;;26.90;38.68
22830;BME280;11581;51.250;6.778;2022-09-09T10:30:12;100448.38;;;26.99;38.35
22830;BME280;11581;51.250;6.778;2022-09-09T10:32:46;100368.91;;;26.58;38.20
22830;BME280;11581;51.250;6.778;2022-09-09T10:35:29;100445.13;;;27.07;38.11
22830;BME280;11581;51.250;6.778;2022-09-09T10:38:10;100413.69;;;26.78;37.63
22830;BME280;11581;51.250;6.778;2022-09-09T10:40:47;100372.34;;;26.43;37.28
22830;BME280;11581;51.250;6.778;2022-09-09T10:43:26;100232.19;;;25.36;37.44
22830;BME280;11581;51.250;6.778;2022-09-09T10:46:03;100445.59;;;26.41;38.35
22830;BME280;11581;51.250;6.778;2022-09-09T10:48:47;100431.78;;;26.26;38.74
22830;BME280;11581;51.250;6.778;2022-09-09T10:51:23;100376.53;;;25.76;38.87
22830;BME280;11581;51.250;6.778;2022-09-09T10:54:12;100455.69;;;26.14;39.17
22830;BME280;11581;51.250;6.778;2022-09-09T10:56:44;100432.16;;;26.13;39.50
22830;BME280;11581;51.250;6.778;2022-09-09T10:59:17;100382.50;;;25.73;39.06
22830;BME280;11581;51.250;6.778;2022-09-09T11:01:51;100450.78;;;26.16;40.88
22830;BME280;11581;51.250;6.778;2022-09-09T11:04:22;100440.69;;;26.17;39.66
22830;BME280;11581;51.250;6.778;2022-09-09T11:06:53;100440.38;;;26.13;39.50
22830;BME280;11581;51.250;6.778;2022-09-09T11:09:23;100434.91;;;26.13;39.73
22830;BME280;11581;51.250;6.778;2022-09-09T11:11:53;100427.31;;;26.20;40.35
22830;BME280;11581;51.250;6.778;2022-09-09T11:14:26;100410.94;;;26.20;39.54
22830;BME280;11581;51.250;6.778;2022-09-09T11:16:59;100430.81;;;26.37;38.91
22830;BME280;11581;51.250;6.778;2022-09-09T11:19:31;100442.28;;;26.39;44.44
22830;BME280;11581;51.250;6.778;2022-09-09T11:22:01;100376.44;;;25.92;42.32
22830;BME280;11581;51.250;6.778;2022-09-09T11:24:33;100440.38;;;26.13;41.74
22830;BME280;11581;51.250;6.778;2022-09-09T11:27:07;100444.34;;;25.84;42.87
22830;BME280;11581;51.250;6.778;2022-09-09T11:29:59;100448.19;;;25.45;42.58
22830;BME280;11581;51.250;6.778;2022-09-09T11:35:31;100387.06;;;24.30;42.94
22830;BME280;11581;51.250;6.778;2022-09-09T11:38:15;100441.41;;;24.37;43.44
22830;BME280;11581;51.250;6.778;2022-09-09T11:40:43;100441.88;;;24.17;44.98
22830;BME280;11581;51.250;6.778;2022-09-09T11:43:14;100430.53;;;24.09;44.73
22830;BME280;11581;51.250;6.778;2022-09-09T11:45:50;100424.38;;;24.13;45.17
22830;BME280;11581;51.250;6.778;2022-09-09T11:48:26;100433.69;;;24.17;44.11
22830;BME280;11581;51.250;6.778;2022-09-09T11:50:59;100429.03;;;24.46;44.18
22830;BME280;11581;51.250;6.778;2022-09-09T11:53:29;100415.53;;;24.51;44.20
22830;BME280;11581;51.250;6.778;2022-09-09T11:56:04;100439.84;;;24.69;43.41
22830;BME280;11581;51.250;6.778;2022-09-09T11:58:40;100348.41;;;24.17;43.02
22830;BME280;11581;51.250;6.778;2022-09-09T12:01:29;100422.00;;;24.78;42.90
22830;BME280;11581;51.250;6.778;2022-09-09T12:04:33;100424.66;;;24.73;43.23
22830;BME280;11581;51.250;6.778;2022-09-09T12:07:04;100444.91;;;24.77;42.99
22830;BME280;11581;51.250;6.778;2022-09-09T12:09:45;100439.59;;;24.70;42.33
22830;BME280;11581;51.250;6.778;2022-09-09T12:12:28;100450.69;;;24.64;43.07
22830;BME280;11581;51.250;6.778;2022-09-09T12:14:59;100436.66;;;24.60;43.16
22830;BME280;11581;51.250;6.778;2022-09-09T12:17:29;100441.88;;;24.62;43.76
22830;BME280;11581;51.250;6.778;2022-09-09T12:20:10;100420.00;;;24.57;43.21
22830;BME280;11581;51.250;6.778;2022-09-09T12:22:51;100445.56;;;24.84;43.08
22830;BME280;11581;51.250;6.778;2022-09-09T12:25:28;100379.38;;;24.72;43.04
22830;BME280;11581;51.250;6.778;2022-09-09T12:28:04;100431.25;;;25.26;42.89
22830;BME280;11581;51.250;6.778;2022-09-09T12:30:39;100413.78;;;25.44;42.59
22830;BME280;11581;51.250;6.778;2022-09-09T12:33:12;100428.94;;;25.73;42.67
22830;BME280;11581;51.250;6.778;2022-09-09T12:35:43;100437.28;;;25.88;41.36
22830;BME280;11581;51.250;6.778;2022-09-09T12:38:13;100391.38;;;25.85;40.52
22830;BME280;11581;51.250;6.778;2022-09-09T12:40:41;100432.00;;;25.98;41.37
22830;BME280;11581;51.250;6.778;2022-09-09T12:43:20;100422.00;;;25.87;40.18
22830;BME280;11581;51.250;6.778;2022-09-09T12:45:50;100416.53;;;25.87;40.19
22830;BME280;11581;51.250;6.778;2022-09-09T12:48:28;100419.34;;;25.92;39.92
22830;BME280;11581;51.250;6.778;2022-09-09T12:50:59;100436.25;;;25.89;40.56
22830;BME280;11581;51.250;6.778;2022-09-09T12:53:30;100401.53;;;25.68;40.35
22830;BME280;11581;51.250;6.778;2022-09-09T12:56:03;100419.66;;;25.74;41.44
22830;BME280;11581;51.250;6.778;2022-09-09T12:58:32;100399.78;;;25.57;41.53
22830;BME280;11581;51.250;6.778;2022-09-09T13:01:02;100426.19;;;25.73;41.40
22830;BME280;11581;51.250;6.778;2022-09-09T13:03:31;100422.50;;;25.84;42.39
22830;BME280;11581;51.250;6.778;2022-09-09T13:06:13;100422.97;;;25.97;41.38
22830;BME280;11581;51.250;6.778;2022-09-09T13:08:40;100429.91;;;26.05;42.64
22830;BME280;11581;51.250;6.778;2022-09-09T13:11:10;100386.56;;;25.92;41.94
22830;BME280;11581;51.250;6.778;2022-09-09T13:13:49;100425.69;;;26.19;42.33
22830;BME280;11581;51.250;6.778;2022-09-09T13:16:21;100420.72;;;26.16;42.75
22830;BME280;11581;51.250;6.778;2022-09-09T13:18:48;100396.47;;;25.98;42.77
22830;BME280;11581;51.250;6.778;2022-09-09T13:21:18;100419.50;;;26.02;42.32
22830;BME280;11581;51.250;6.778;2022-09-09T13:23:49;100307.09;;;25.29;42.37